sensor_id;sensor_type;location;lat;lon;timestamp;temperature;humidity
59025;DHT22;44806;48.008;13.666;2024-01-27T00:00:00;5.60;99.90
59025;DHT22;44806;48.008;13.666;2024-01-27T00:02:27;5.60;99.90
59025;DHT22;44806;48.008;13.666;2024-01-27T00:04:54;5.60;99.90
59025;DHT22;44806;48.008;13.666;2024-01-27T00:07:21;5.60;99.90
59025;DHT22;44806;48.008;13.666;2024-01-27T00:09:50;5.60;99.90
59025;DHT22;44806;48.008;13.666;2024-01-27T00:12:17;5.60;99.90
59025;DHT22;44806;48.008;13.666;2024-01-27T00:14:44;5.60;99.90
59025;DHT22;44806;48.008;13.666;2024-01-27T00:17:11;5.50;99.90
59025;DHT22;44806;48.008;13.666;2024-01-27T00:19:38;5.60;99.90
59025;DHT22;44806;48.008;13.666;2024-01-27T00:22:05;5.60;99.90
59025;DHT22;44806;48.008;13.666;2024-01-27T00:24:32;5.60;99.90
59025;DHT22;44806;48.008;13.666;2024-01-27T00:27:00;5.60;99.90
59025;DHT22;44806;48.008;13.666;2024-01-27T00:29:27;5.60;99.90
59025;DHT22;44806;48.008;13.666;2024-01-27T00:31:54;5.60;99.90
59025;DHT22;44806;48.008;13.666;2024-01-27T00:34:21;5.60;99.90
59025;DHT22;44806;48.008;13.666;2024-01-27T00:36:48;5.50;99.90
59025;DHT22;44806;48.008;13.666;2024-01-27T00:39:15;5.40;99.90
59025;DHT22;44806;48.008;13.666;2024-01-27T00:41:42;5.50;99.90
59025;DHT22;44806;48.008;13.666;2024-01-27T00:44:10;5.50;99.90
59025;DHT22;44806;48.008;13.666;2024-01-27T00:46:37;5.50;99.90
59025;DHT22;44806;48.008;13.666;2024-01-27T00:49:04;5.60;99.90
59025;DHT22;44806;48.008;13.666;2024-01-27T00:51:31;5.50;99.90
59025;DHT22;44806;48.008;13.666;2024-01-27T00:53:58;5.50;99.90
59025;DHT22;44806;48.008;13.666;2024-01-27T00:56:25;5.50;99.90
59025;DHT22;44806;48.008;13.666;2024-01-27T00:58:52;5.50;99.90
59025;DHT22;44806;48.008;13.666;2024-01-27T01:01:20;5.50;99.90
59025;DHT22;44806;48.008;13.666;2024-01-27T01:03:47;5.60;99.90
59025;DHT22;44806;48.008;13.666;2024-01-27T01:06:14;5.40;99.90
59025;DHT22;44806;48.008;13.666;2024-01-27T01:08:41;5.40;99.90
59025;DHT22;44806;48.008;13.666;2024-01-27T01:11:08;5.50;99.90
59025;DHT22;44806;48.008;13.666;2024-01-27T01:13:35;5.50;99.90
59025;DHT22;44806;48.008;13.666;2024-01-27T01:16:02;5.40;99.90
59025;DHT22;44806;48.008;13.666;2024-01-27T01:18:31;5.40;99.90
59025;DHT22;44806;48.008;13.666;2024-01-27T01:20:58;5.40;99.90
59025;DHT22;44806;48.008;13.666;2024-01-27T01:23:24;5.40;99.90
59025;DHT22;44806;48.008;13.666;2024-01-27T01:25:51;5.30;99.90
59025;DHT22;44806;48.008;13.666;2024-01-27T01:28:18;5.40;99.90
59025;DHT22;44806;48.008;13.666;2024-01-27T01:30:45;5.30;99.90
59025;DHT22;44806;48.008;13.666;2024-01-27T01:33:12;5.30;99.90
59025;DHT22;44806;48.008;13.666;2024-01-27T01:35:40;5.30;99.90
59025;DHT22;44806;48.008;13.666;2024-01-27T01:38:07;5.30;99.90
59025;DHT22;44806;48.008;13.666;2024-01-27T01:40:34;5.30;99.90
59025;DHT22;44806;48.008;13.666;2024-01-27T01:43:01;5.30;99.90
59025;DHT22;44806;48.008;13.666;2024-01-27T01:45:29;5.30;99.90
59025;DHT22;44806;48.008;13.666;2024-01-27T01:47:56;5.40;99.90
59025;DHT22;44806;48.008;13.666;2024-01-27T01:50:23;5.30;99.90
59025;DHT22;44806;48.008;13.666;2024-01-27T01:52:52;5.30;99.90
59025;DHT22;44806;48.008;13.666;2024-01-27T01:55:19;5.40;99.90
59025;DHT22;44806;48.008;13.666;2024-01-27T01:57:46;5.30;99.90
59025;DHT22;44806;48.008;13.666;2024-01-27T02:00:15;5.30;99.90
59025;DHT22;44806;48.008;13.666;2024-01-27T02:02:43;5.20;99.90
59025;DHT22;44806;48.008;13.666;2024-01-27T02:05:11;5.30;99.90
59025;DHT22;44806;48.008;13.666;2024-01-27T02:07:38;5.30;99.90
59025;DHT22;44806;48.008;13.666;2024-01-27T02:10:12;5.30;99.90
59025;DHT22;44806;48.008;13.666;2024-01-27T02:12:40;5.30;99.90
59025;DHT22;44806;48.008;13.666;2024-01-27T02:15:10;5.30;99.90
59025;DHT22;44806;48.008;13.666;2024-01-27T02:17:37;5.30;99.90
59025;DHT22;44806;48.008;13.666;2024-01-27T02:20:05;5.30;99.90
59025;DHT22;44806;48.008;13.666;2024-01-27T02:22:33;5.30;99.90
59025;DHT22;44806;48.008;13.666;2024-01-27T02:25:02;5.30;99.90
59025;DHT22;44806;48.008;13.666;2024-01-27T02:27:29;5.20;99.90
59025;DHT22;44806;48.008;13.666;2024-01-27T02:29:56;5.20;99.90
59025;DHT22;44806;48.008;13.666;2024-01-27T02:32:23;5.20;99.90
59025;DHT22;44806;48.008;13.666;2024-01-27T02:34:49;5.20;99.90
59025;DHT22;44806;48.008;13.666;2024-01-27T02:37:18;5.10;99.90
59025;DHT22;44806;48.008;13.666;2024-01-27T02:39:45;5.10;99.90
59025;DHT22;44806;48.008;13.666;2024-01-27T02:42:14;5.10;99.90
59025;DHT22;44806;48.008;13.666;2024-01-27T02:44:41;5.10;99.90
59025;DHT22;44806;48.008;13.666;2024-01-27T02:47:08;5.00;99.90
59025;DHT22;44806;48.008;13.666;2024-01-27T02:49:35;5.10;99.90
59025;DHT22;44806;48.008;13.666;2024-01-27T02:52:02;5.10;99.90
59025;DHT22;44806;48.008;13.666;2024-01-27T02:54:28;5.00;99.90
59025;DHT22;44806;48.008;13.666;2024-01-27T02:56:55;5.00;99.90
59025;DHT22;44806;48.008;13.666;2024-01-27T02:59:24;4.90;99.90
59025;DHT22;44806;48.008;13.666;2024-01-27T03:01:50;4.90;99.90
59025;DHT22;44806;48.008;13.666;2024-01-27T03:04:17;4.90;99.90
59025;DHT22;44806;48.008;13.666;2024-01-27T03:06:44;4.90;99.90
59025;DHT22;44806;48.008;13.666;2024-01-27T03:09:11;4.90;99.90
59025;DHT22;44806;48.008;13.666;2024-01-27T03:11:38;4.90;99.90
59025;DHT22;44806;48.008;13.666;2024-01-27T03:14:05;4.90;99.90
59025;DHT22;44806;48.008;13.666;2024-01-27T03:16:33;4.90;99.90
59025;DHT22;44806;48.008;13.666;2024-01-27T03:19:01;4.80;99.90
59025;DHT22;44806;48.008;13.666;2024-01-27T03:21:28;4.70;99.90
59025;DHT22;44806;48.008;13.666;2024-01-27T03:23:56;4.70;99.90
59025;DHT22;44806;48.008;13.666;2024-01-27T03:26:22;4.70;99.90
59025;DHT22;44806;48.008;13.666;2024-01-27T03:28:50;4.60;99.90
59025;DHT22;44806;48.008;13.666;2024-01-27T03:34:43;4.60;99.90
59025;DHT22;44806;48.008;13.666;2024-01-27T03:37:11;4.60;99.90
59025;DHT22;44806;48.008;13.666;2024-01-27T03:39:40;4.50;99.90
59025;DHT22;44806;48.008;13.666;2024-01-27T03:42:07;4.50;99.90
59025;DHT22;44806;48.008;13.666;2024-01-27T03:44:34;4.40;99.90
59025;DHT22;44806;48.008;13.666;2024-01-27T03:47:01;4.40;99.90
59025;DHT22;44806;48.008;13.666;2024-01-27T03:49:28;4.50;99.90
59025;DHT22;44806;48.008;13.666;2024-01-27T03:51:56;4.50;99.90
59025;DHT22;44806;48.008;13.666;2024-01-27T03:54:23;4.50;99.90
59025;DHT22;44806;48.008;13.666;2024-01-27T03:56:50;4.50;99.90
59025;DHT22;44806;48.008;13.666;2024-01-27T03:59:17;4.50;99.90
59025;DHT22;44806;48.008;13.666;2024-01-27T04:01:44;4.40;99.90
59025;DHT22;44806;48.008;13.666;2024-01-27T04:04:11;4.40;99.90
59025;DHT22;44806;48.008;13.666;2024-01-27T04:06:39;4.50;99.90
59025;DHT22;44806;48.008;13.666;2024-01-27T04:09:08;4.40;99.90
59025;DHT22;44806;48.008;13.666;2024-01-27T04:11:35;4.50;99.90
59025;DHT22;44806;48.008;13.666;2024-01-27T04:14:04;4.40;99.90
59025;DHT22;44806;48.008;13.666;2024-01-27T04:16:31;4.40;99.90
59025;DHT22;44806;48.008;13.666;2024-01-27T04:18:58;4.40;99.90
59025;DHT22;44806;48.008;13.666;2024-01-27T04:21:25;4.40;99.90
59025;DHT22;44806;48.008;13.666;2024-01-27T04:23:52;4.40;99.90
59025;DHT22;44806;48.008;13.666;2024-01-27T04:26:20;4.40;99.90
59025;DHT22;44806;48.008;13.666;2024-01-27T04:28:47;4.40;99.90
59025;DHT22;44806;48.008;13.666;2024-01-27T04:31:14;4.40;99.90
59025;DHT22;44806;48.008;13.666;2024-01-27T04:33:41;4.40;99.90
59025;DHT22;44806;48.008;13.666;2024-01-27T04:36:08;4.40;99.90
59025;DHT22;44806;48.008;13.666;2024-01-27T04:38:35;4.30;99.90
59025;DHT22;44806;48.008;13.666;2024-01-27T04:41:02;4.40;99.90
59025;DHT22;44806;48.008;13.666;2024-01-27T04:43:31;4.30;99.90
59025;DHT22;44806;48.008;13.666;2024-01-27T04:45:58;4.30;99.90
59025;DHT22;44806;48.008;13.666;2024-01-27T04:48:25;4.40;99.90
59025;DHT22;44806;48.008;13.666;2024-01-27T04:50:51;4.30;99.90
59025;DHT22;44806;48.008;13.666;2024-01-27T04:53:18;4.20;99.90
59025;DHT22;44806;48.008;13.666;2024-01-27T04:55:45;4.30;99.90
59025;DHT22;44806;48.008;13.666;2024-01-27T04:58:12;4.20;99.90
59025;DHT22;44806;48.008;13.666;2024-01-27T05:00:41;4.30;99.90
59025;DHT22;44806;48.008;13.666;2024-01-27T05:03:08;4.20;99.90
59025;DHT22;44806;48.008;13.666;2024-01-27T05:05:40;4.30;99.90
59025;DHT22;44806;48.008;13.666;2024-01-27T05:08:07;4.30;99.90
59025;DHT22;44806;48.008;13.666;2024-01-27T05:10:35;4.30;99.90
59025;DHT22;44806;48.008;13.666;2024-01-27T05:13:01;4.40;99.90
59025;DHT22;44806;48.008;13.666;2024-01-27T05:15:29;4.40;99.90
59025;DHT22;44806;48.008;13.666;2024-01-27T05:17:57;4.30;99.90
59025;DHT22;44806;48.008;13.666;2024-01-27T05:20:24;4.40;99.90
59025;DHT22;44806;48.008;13.666;2024-01-27T05:22:50;4.40;99.90
59025;DHT22;44806;48.008;13.666;2024-01-27T05:25:17;4.30;99.90
59025;DHT22;44806;48.008;13.666;2024-01-27T05:27:44;4.30;99.90
59025;DHT22;44806;48.008;13.666;2024-01-27T05:30:12;4.30;99.90
59025;DHT22;44806;48.008;13.666;2024-01-27T05:32:40;4.30;99.90
59025;DHT22;44806;48.008;13.666;2024-01-27T05:35:08;4.20;99.90
59025;DHT22;44806;48.008;13.666;2024-01-27T05:37:36;4.30;99.90
59025;DHT22;44806;48.008;13.666;2024-01-27T05:40:06;4.30;99.90
59025;DHT22;44806;48.008;13.666;2024-01-27T05:42:33;4.40;99.90
59025;DHT22;44806;48.008;13.666;2024-01-27T05:45:00;4.30;99.90
59025;DHT22;44806;48.008;13.666;2024-01-27T05:47:26;4.20;99.90
59025;DHT22;44806;48.008;13.666;2024-01-27T05:49:54;4.40;99.90
59025;DHT22;44806;48.008;13.666;2024-01-27T05:52:22;4.30;99.90
59025;DHT22;44806;48.008;13.666;2024-01-27T05:54:51;4.30;99.90
59025;DHT22;44806;48.008;13.666;2024-01-27T05:57:18;4.30;99.90
59025;DHT22;44806;48.008;13.666;2024-01-27T05:59:45;4.20;99.90
59025;DHT22;44806;48.008;13.666;2024-01-27T06:02:12;4.30;99.90
59025;DHT22;44806;48.008;13.666;2024-01-27T06:04:39;4.30;99.90
59025;DHT22;44806;48.008;13.666;2024-01-27T06:07:06;4.30;99.90
59025;DHT22;44806;48.008;13.666;2024-01-27T06:09:34;4.30;99.90
59025;DHT22;44806;48.008;13.666;2024-01-27T06:12:04;4.40;99.90
59025;DHT22;44806;48.008;13.666;2024-01-27T06:14:31;4.40;99.90
59025;DHT22;44806;48.008;13.666;2024-01-27T06:16:58;4.30;99.90
59025;DHT22;44806;48.008;13.666;2024-01-27T06:19:25;4.40;99.90
59025;DHT22;44806;48.008;13.666;2024-01-27T06:21:52;4.40;99.90
59025;DHT22;44806;48.008;13.666;2024-01-27T06:24:19;4.20;99.90
59025;DHT22;44806;48.008;13.666;2024-01-27T06:26:47;4.30;99.90
59025;DHT22;44806;48.008;13.666;2024-01-27T06:29:14;4.30;99.90
59025;DHT22;44806;48.008;13.666;2024-01-27T06:31:41;4.30;99.90
59025;DHT22;44806;48.008;13.666;2024-01-27T06:34:08;4.30;99.90
59025;DHT22;44806;48.008;13.666;2024-01-27T06:36:35;4.30;99.90
59025;DHT22;44806;48.008;13.666;2024-01-27T06:39:02;4.30;99.90
59025;DHT22;44806;48.008;13.666;2024-01-27T06:41:29;4.30;99.90
59025;DHT22;44806;48.008;13.666;2024-01-27T06:43:57;4.30;99.90
59025;DHT22;44806;48.008;13.666;2024-01-27T06:46:24;4.40;99.90
59025;DHT22;44806;48.008;13.666;2024-01-27T06:48:51;4.30;99.90
59025;DHT22;44806;48.008;13.666;2024-01-27T06:51:18;4.30;99.90
59025;DHT22;44806;48.008;13.666;2024-01-27T06:53:45;4.20;99.90
59025;DHT22;44806;48.008;13.666;2024-01-27T06:56:13;4.30;99.90
59025;DHT22;44806;48.008;13.666;2024-01-27T06:58:40;4.30;99.90
59025;DHT22;44806;48.008;13.666;2024-01-27T07:01:09;4.30;99.90
59025;DHT22;44806;48.008;13.666;2024-01-27T07:03:36;4.40;99.90
59025;DHT22;44806;48.008;13.666;2024-01-27T07:06:05;4.30;99.90
59025;DHT22;44806;48.008;13.666;2024-01-27T07:08:32;4.40;99.90
59025;DHT22;44806;48.008;13.666;2024-01-27T07:10:59;4.30;99.90
59025;DHT22;44806;48.008;13.666;2024-01-27T07:13:26;4.30;99.90
59025;DHT22;44806;48.008;13.666;2024-01-27T07:15:55;4.40;99.90
59025;DHT22;44806;48.008;13.666;2024-01-27T07:18:24;4.30;99.90
59025;DHT22;44806;48.008;13.666;2024-01-27T07:20:51;4.20;99.90
59025;DHT22;44806;48.008;13.666;2024-01-27T07:23:18;4.20;99.90
59025;DHT22;44806;48.008;13.666;2024-01-27T07:25:45;4.20;99.90
59025;DHT22;44806;48.008;13.666;2024-01-27T07:28:12;4.10;99.90
59025;DHT22;44806;48.008;13.666;2024-01-27T07:30:41;4.10;99.90
59025;DHT22;44806;48.008;13.666;2024-01-27T07:33:08;4.10;99.90
59025;DHT22;44806;48.008;13.666;2024-01-27T07:35:36;4.10;99.90
59025;DHT22;44806;48.008;13.666;2024-01-27T07:38:03;4.10;99.90
59025;DHT22;44806;48.008;13.666;2024-01-27T07:40:30;4.20;99.90
59025;DHT22;44806;48.008;13.666;2024-01-27T07:42:57;4.10;99.90
59025;DHT22;44806;48.008;13.666;2024-01-27T07:45:24;4.10;99.90
59025;DHT22;44806;48.008;13.666;2024-01-27T07:47:51;4.10;99.90
59025;DHT22;44806;48.008;13.666;2024-01-27T07:50:18;4.20;99.90
59025;DHT22;44806;48.008;13.666;2024-01-27T07:52:46;4.20;99.90
59025;DHT22;44806;48.008;13.666;2024-01-27T07:55:13;4.00;99.90
59025;DHT22;44806;48.008;13.666;2024-01-27T07:57:40;4.00;99.90
59025;DHT22;44806;48.008;13.666;2024-01-27T08:00:08;4.10;99.90
59025;DHT22;44806;48.008;13.666;2024-01-27T08:02:35;4.20;99.90
59025;DHT22;44806;48.008;13.666;2024-01-27T08:05:03;4.20;99.90
59025;DHT22;44806;48.008;13.666;2024-01-27T08:07:30;4.30;99.90
59025;DHT22;44806;48.008;13.666;2024-01-27T08:09:59;4.10;99.90
59025;DHT22;44806;48.008;13.666;2024-01-27T08:12:25;4.20;99.90
59025;DHT22;44806;48.008;13.666;2024-01-27T08:14:52;4.10;99.90
59025;DHT22;44806;48.008;13.666;2024-01-27T08:17:20;4.10;99.90
59025;DHT22;44806;48.008;13.666;2024-01-27T08:19:48;4.20;99.90
59025;DHT22;44806;48.008;13.666;2024-01-27T08:22:15;4.20;99.90
59025;DHT22;44806;48.008;13.666;2024-01-27T08:24:42;4.20;99.90
59025;DHT22;44806;48.008;13.666;2024-01-27T08:27:10;4.30;99.90
59025;DHT22;44806;48.008;13.666;2024-01-27T08:29:37;4.30;99.90
59025;DHT22;44806;48.008;13.666;2024-01-27T08:32:05;4.30;99.90
59025;DHT22;44806;48.008;13.666;2024-01-27T08:34:32;4.20;99.90
59025;DHT22;44806;48.008;13.666;2024-01-27T08:37:01;4.20;99.90
59025;DHT22;44806;48.008;13.666;2024-01-27T08:39:28;4.20;99.90
59025;DHT22;44806;48.008;13.666;2024-01-27T08:41:55;4.10;99.90
59025;DHT22;44806;48.008;13.666;2024-01-27T08:44:24;4.00;99.90
59025;DHT22;44806;48.008;13.666;2024-01-27T08:46:51;4.10;99.90
59025;DHT22;44806;48.008;13.666;2024-01-27T08:49:18;4.10;99.90
59025;DHT22;44806;48.008;13.666;2024-01-27T08:51:45;4.20;99.90
59025;DHT22;44806;48.008;13.666;2024-01-27T08:54:11;4.10;99.90
59025;DHT22;44806;48.008;13.666;2024-01-27T08:56:39;4.10;99.90
59025;DHT22;44806;48.008;13.666;2024-01-27T08:59:07;4.00;99.90
59025;DHT22;44806;48.008;13.666;2024-01-27T09:01:35;4.00;99.90
59025;DHT22;44806;48.008;13.666;2024-01-27T09:04:02;4.10;99.90
59025;DHT22;44806;48.008;13.666;2024-01-27T09:06:29;4.20;99.90
59025;DHT22;44806;48.008;13.666;2024-01-27T09:08:56;4.30;99.90
59025;DHT22;44806;48.008;13.666;2024-01-27T09:11:23;4.40;99.90
59025;DHT22;44806;48.008;13.666;2024-01-27T09:13:52;4.30;99.90
59025;DHT22;44806;48.008;13.666;2024-01-27T09:16:19;4.40;99.90
59025;DHT22;44806;48.008;13.666;2024-01-27T09:18:48;4.50;99.90
59025;DHT22;44806;48.008;13.666;2024-01-27T09:21:16;4.60;99.90
59025;DHT22;44806;48.008;13.666;2024-01-27T09:23:46;4.60;99.90
59025;DHT22;44806;48.008;13.666;2024-01-27T09:26:13;4.60;99.90
59025;DHT22;44806;48.008;13.666;2024-01-27T09:28:43;4.70;99.90
59025;DHT22;44806;48.008;13.666;2024-01-27T09:31:13;4.80;99.90
59025;DHT22;44806;48.008;13.666;2024-01-27T09:33:40;4.80;99.90
59025;DHT22;44806;48.008;13.666;2024-01-27T09:36:09;4.90;99.90
59025;DHT22;44806;48.008;13.666;2024-01-27T09:38:36;4.90;99.90
59025;DHT22;44806;48.008;13.666;2024-01-27T09:41:03;4.90;99.90
59025;DHT22;44806;48.008;13.666;2024-01-27T09:43:31;5.00;99.90
59025;DHT22;44806;48.008;13.666;2024-01-27T09:45:58;5.00;99.90
59025;DHT22;44806;48.008;13.666;2024-01-27T09:48:25;5.10;99.90
59025;DHT22;44806;48.008;13.666;2024-01-27T09:50:52;5.20;99.90
59025;DHT22;44806;48.008;13.666;2024-01-27T09:53:21;5.30;99.90
59025;DHT22;44806;48.008;13.666;2024-01-27T09:55:48;5.30;99.90
59025;DHT22;44806;48.008;13.666;2024-01-27T09:58:16;5.20;99.90
59025;DHT22;44806;48.008;13.666;2024-01-27T10:00:43;5.30;99.90
59025;DHT22;44806;48.008;13.666;2024-01-27T10:03:11;5.30;99.90
59025;DHT22;44806;48.008;13.666;2024-01-27T10:05:38;5.30;99.90
59025;DHT22;44806;48.008;13.666;2024-01-27T10:08:07;5.30;99.90
59025;DHT22;44806;48.008;13.666;2024-01-27T10:10:36;5.40;99.90
59025;DHT22;44806;48.008;13.666;2024-01-27T10:13:04;5.50;99.90
59025;DHT22;44806;48.008;13.666;2024-01-27T10:15:31;5.60;99.90
59025;DHT22;44806;48.008;13.666;2024-01-27T10:18:05;5.60;99.90
59025;DHT22;44806;48.008;13.666;2024-01-27T10:20:33;5.70;99.90
59025;DHT22;44806;48.008;13.666;2024-01-27T10:23:10;5.80;99.90
59025;DHT22;44806;48.008;13.666;2024-01-27T10:25:39;5.90;99.90
59025;DHT22;44806;48.008;13.666;2024-01-27T10:28:06;5.90;99.90
59025;DHT22;44806;48.008;13.666;2024-01-27T10:30:34;5.80;99.90
59025;DHT22;44806;48.008;13.666;2024-01-27T10:33:01;5.80;99.90
59025;DHT22;44806;48.008;13.666;2024-01-27T10:35:29;5.80;99.90
59025;DHT22;44806;48.008;13.666;2024-01-27T10:37:56;5.70;99.90
59025;DHT22;44806;48.008;13.666;2024-01-27T10:40:23;5.70;99.90
59025;DHT22;44806;48.008;13.666;2024-01-27T10:43:02;5.70;99.90
59025;DHT22;44806;48.008;13.666;2024-01-27T10:45:34;5.80;99.90
59025;DHT22;44806;48.008;13.666;2024-01-27T10:48:03;5.80;99.90
59025;DHT22;44806;48.008;13.666;2024-01-27T10:50:34;5.80;99.90
59025;DHT22;44806;48.008;13.666;2024-01-27T10:53:03;6.00;99.90
59025;DHT22;44806;48.008;13.666;2024-01-27T10:55:32;5.80;99.90
59025;DHT22;44806;48.008;13.666;2024-01-27T10:58:02;5.80;99.90
59025;DHT22;44806;48.008;13.666;2024-01-27T11:00:29;5.80;99.90
59025;DHT22;44806;48.008;13.666;2024-01-27T11:02:58;5.80;99.90
59025;DHT22;44806;48.008;13.666;2024-01-27T11:05:27;5.90;99.90
59025;DHT22;44806;48.008;13.666;2024-01-27T11:07:55;5.90;99.90
59025;DHT22;44806;48.008;13.666;2024-01-27T11:10:24;6.00;99.90
59025;DHT22;44806;48.008;13.666;2024-01-27T11:12:53;6.10;99.90
59025;DHT22;44806;48.008;13.666;2024-01-27T11:15:22;6.10;99.90
59025;DHT22;44806;48.008;13.666;2024-01-27T11:17:49;6.00;99.90
59025;DHT22;44806;48.008;13.666;2024-01-27T11:20:16;5.90;99.90
59025;DHT22;44806;48.008;13.666;2024-01-27T11:22:43;6.10;99.90
59025;DHT22;44806;48.008;13.666;2024-01-27T11:25:15;6.20;99.70
59025;DHT22;44806;48.008;13.666;2024-01-27T11:27:44;6.10;99.50
59025;DHT22;44806;48.008;13.666;2024-01-27T11:30:26;6.00;99.30
59025;DHT22;44806;48.008;13.666;2024-01-27T11:32:55;6.10;99.50
59025;DHT22;44806;48.008;13.666;2024-01-27T11:35:22;6.20;99.30
59025;DHT22;44806;48.008;13.666;2024-01-27T11:37:49;6.20;99.30
59025;DHT22;44806;48.008;13.666;2024-01-27T11:40:16;6.10;99.60
59025;DHT22;44806;48.008;13.666;2024-01-27T11:42:43;6.20;99.40
59025;DHT22;44806;48.008;13.666;2024-01-27T11:45:10;6.30;99.80
59025;DHT22;44806;48.008;13.666;2024-01-27T11:47:38;6.20;98.90
59025;DHT22;44806;48.008;13.666;2024-01-27T11:50:06;6.30;99.30
59025;DHT22;44806;48.008;13.666;2024-01-27T11:52:34;6.40;99.90
59025;DHT22;44806;48.008;13.666;2024-01-27T11:55:01;6.30;98.50
59025;DHT22;44806;48.008;13.666;2024-01-27T11:57:28;6.40;98.20
59025;DHT22;44806;48.008;13.666;2024-01-27T11:59:56;6.40;97.50
59025;DHT22;44806;48.008;13.666;2024-01-27T12:02:23;6.40;97.50
59025;DHT22;44806;48.008;13.666;2024-01-27T12:04:51;6.40;98.00
59025;DHT22;44806;48.008;13.666;2024-01-27T12:07:19;6.40;97.30
59025;DHT22;44806;48.008;13.666;2024-01-27T12:09:48;6.60;97.50
59025;DHT22;44806;48.008;13.666;2024-01-27T12:12:15;6.50;97.70
59025;DHT22;44806;48.008;13.666;2024-01-27T12:14:45;6.60;97.70
59025;DHT22;44806;48.008;13.666;2024-01-27T12:17:13;6.60;97.10
59025;DHT22;44806;48.008;13.666;2024-01-27T12:19:45;6.70;98.20
59025;DHT22;44806;48.008;13.666;2024-01-27T12:22:23;6.80;98.40
59025;DHT22;44806;48.008;13.666;2024-01-27T12:24:51;6.70;97.50
59025;DHT22;44806;48.008;13.666;2024-01-27T12:27:19;6.80;97.50
59025;DHT22;44806;48.008;13.666;2024-01-27T12:29:47;6.80;96.90
59025;DHT22;44806;48.008;13.666;2024-01-27T12:32:15;6.80;96.40
59025;DHT22;44806;48.008;13.666;2024-01-27T12:34:42;6.90;97.00
59025;DHT22;44806;48.008;13.666;2024-01-27T12:37:11;6.90;96.40
59025;DHT22;44806;48.008;13.666;2024-01-27T12:39:42;7.10;97.60
59025;DHT22;44806;48.008;13.666;2024-01-27T12:42:09;7.10;96.40
59025;DHT22;44806;48.008;13.666;2024-01-27T12:44:36;7.10;96.00
59025;DHT22;44806;48.008;13.666;2024-01-27T12:47:04;7.00;95.50
59025;DHT22;44806;48.008;13.666;2024-01-27T12:49:31;6.70;96.10
59025;DHT22;44806;48.008;13.666;2024-01-27T12:51:58;6.80;96.10
59025;DHT22;44806;48.008;13.666;2024-01-27T12:54:25;6.80;95.40
59025;DHT22;44806;48.008;13.666;2024-01-27T12:56:54;6.70;95.80
59025;DHT22;44806;48.008;13.666;2024-01-27T12:59:21;6.70;94.70
59025;DHT22;44806;48.008;13.666;2024-01-27T13:01:49;6.80;94.70
59025;DHT22;44806;48.008;13.666;2024-01-27T13:04:16;6.80;94.70
59025;DHT22;44806;48.008;13.666;2024-01-27T13:06:43;6.70;93.90
59025;DHT22;44806;48.008;13.666;2024-01-27T13:09:11;6.60;94.00
59025;DHT22;44806;48.008;13.666;2024-01-27T13:11:38;6.80;93.70
59025;DHT22;44806;48.008;13.666;2024-01-27T13:14:06;6.70;93.40
59025;DHT22;44806;48.008;13.666;2024-01-27T13:16:35;6.70;93.00
59025;DHT22;44806;48.008;13.666;2024-01-27T13:19:02;6.80;94.10
59025;DHT22;44806;48.008;13.666;2024-01-27T13:21:29;6.80;93.90
59025;DHT22;44806;48.008;13.666;2024-01-27T13:23:55;6.80;93.60
59025;DHT22;44806;48.008;13.666;2024-01-27T13:26:22;6.70;94.60
59025;DHT22;44806;48.008;13.666;2024-01-27T13:28:49;6.80;94.40
59025;DHT22;44806;48.008;13.666;2024-01-27T13:31:18;6.90;94.10
59025;DHT22;44806;48.008;13.666;2024-01-27T13:33:44;6.90;94.30
59025;DHT22;44806;48.008;13.666;2024-01-27T13:36:11;7.00;93.90
59025;DHT22;44806;48.008;13.666;2024-01-27T13:38:38;6.90;93.30
59025;DHT22;44806;48.008;13.666;2024-01-27T13:41:05;7.00;94.00
59025;DHT22;44806;48.008;13.666;2024-01-27T13:43:32;6.90;93.90
59025;DHT22;44806;48.008;13.666;2024-01-27T13:45:59;6.80;93.50
59025;DHT22;44806;48.008;13.666;2024-01-27T13:48:27;6.80;93.60
59025;DHT22;44806;48.008;13.666;2024-01-27T13:50:54;6.80;93.60
59025;DHT22;44806;48.008;13.666;2024-01-27T13:53:21;6.80;92.80
59025;DHT22;44806;48.008;13.666;2024-01-27T13:55:49;6.80;93.20
59025;DHT22;44806;48.008;13.666;2024-01-27T13:58:16;6.80;93.40
59025;DHT22;44806;48.008;13.666;2024-01-27T14:00:42;6.70;93.00
59025;DHT22;44806;48.008;13.666;2024-01-27T14:03:09;6.80;92.70
59025;DHT22;44806;48.008;13.666;2024-01-27T14:05:37;6.90;92.80
59025;DHT22;44806;48.008;13.666;2024-01-27T14:08:05;7.00;93.50
59025;DHT22;44806;48.008;13.666;2024-01-27T14:10:32;6.90;92.90
59025;DHT22;44806;48.008;13.666;2024-01-27T14:13:00;6.80;92.90
59025;DHT22;44806;48.008;13.666;2024-01-27T14:15:30;6.90;92.90
59025;DHT22;44806;48.008;13.666;2024-01-27T14:17:57;7.00;93.00
59025;DHT22;44806;48.008;13.666;2024-01-27T14:20:23;6.80;92.90
59025;DHT22;44806;48.008;13.666;2024-01-27T14:22:52;6.80;93.20
59025;DHT22;44806;48.008;13.666;2024-01-27T14:25:19;6.80;93.30
59025;DHT22;44806;48.008;13.666;2024-01-27T14:27:46;6.80;93.80
59025;DHT22;44806;48.008;13.666;2024-01-27T14:30:13;6.90;94.10
59025;DHT22;44806;48.008;13.666;2024-01-27T14:32:40;7.00;93.60
59025;DHT22;44806;48.008;13.666;2024-01-27T14:35:07;7.00;93.70
59025;DHT22;44806;48.008;13.666;2024-01-27T14:37:34;6.90;92.60
59025;DHT22;44806;48.008;13.666;2024-01-27T14:40:05;6.90;93.00
59025;DHT22;44806;48.008;13.666;2024-01-27T14:42:33;6.90;93.10
59025;DHT22;44806;48.008;13.666;2024-01-27T14:45:02;6.80;92.40
59025;DHT22;44806;48.008;13.666;2024-01-27T14:47:29;6.80;92.90
59025;DHT22;44806;48.008;13.666;2024-01-27T14:49:56;6.70;91.50
59025;DHT22;44806;48.008;13.666;2024-01-27T14:52:22;6.80;92.80
59025;DHT22;44806;48.008;13.666;2024-01-27T14:54:50;6.70;92.30
59025;DHT22;44806;48.008;13.666;2024-01-27T14:57:18;6.70;91.50
59025;DHT22;44806;48.008;13.666;2024-01-27T14:59:45;6.70;91.40
59025;DHT22;44806;48.008;13.666;2024-01-27T15:02:12;6.60;91.90
59025;DHT22;44806;48.008;13.666;2024-01-27T15:04:40;6.50;92.10
59025;DHT22;44806;48.008;13.666;2024-01-27T15:07:07;6.50;91.60
59025;DHT22;44806;48.008;13.666;2024-01-27T15:09:35;6.60;92.30
59025;DHT22;44806;48.008;13.666;2024-01-27T15:12:02;6.50;92.30
59025;DHT22;44806;48.008;13.666;2024-01-27T15:14:31;6.50;92.30
59025;DHT22;44806;48.008;13.666;2024-01-27T15:16:58;6.50;91.40
59025;DHT22;44806;48.008;13.666;2024-01-27T15:19:25;6.50;91.30
59025;DHT22;44806;48.008;13.666;2024-01-27T15:21:53;6.50;91.70
59025;DHT22;44806;48.008;13.666;2024-01-27T15:24:19;6.50;91.60
59025;DHT22;44806;48.008;13.666;2024-01-27T15:26:46;6.40;91.40
59025;DHT22;44806;48.008;13.666;2024-01-27T15:29:13;6.40;91.90
59025;DHT22;44806;48.008;13.666;2024-01-27T15:31:41;6.40;91.90
59025;DHT22;44806;48.008;13.666;2024-01-27T15:34:08;6.40;92.10